GVBAGVAC

Guest
Details From GVBA - Rabil
To GVAC - Sal Amilcar Cabral Intl
Flight Number -
Tags generated
Created
Modified
Stats Distance 36 nm / 67 km
Max Altitude 0 ft / 0 m
Waypoints 3
Social Downloads 1
Likes 0
Share VATSIM

Download

Looking for another format? Having issues loading an existing format? Contact us
Advertisement - Login to hide

Notes

Basic altitude profile: - Ascent Rate: 2500ft/min - Ascent Speed: 250kts - Cruise Altitude: 35000ft - Cruise Speed: 420kts - Descent Rate: 1500ft/min - Descent Speed: 250kts Options: - Use NATs: yes - Use PACOTS: yes - Use low airways: yes - Use high airways: yes

Route

GVBA CVS GVAC

ID Type Via Altitude Latitude Longitude Leg Dist Tot Dist Heading (true) Name
O GVBA APT - 0 ft / 0 m 16.13653˚ -22.88890˚ - 0 nm - Rabil
CVS VOR - 0 ft / 0 m 16.73677˚ -22.95105˚ 36 nm 36 nm 354° / 354° SAL VOR-DME
O GVAC APT - 0 ft / 0 m 16.73821˚ -22.95050˚ 0 nm 36 nm 20° / 20° Sal Amilcar Cabral Intl

Altitude Profile

Advertisement - Login to hide

GVBA

Details ICAO GVBA (BVC)
Name Rabil
Region Cape Verde
Timezone Atlantic/Cape_Verde (UTC-1.0)
Stats Elevation 69 ft / 21 m (AMSL)
Location 16.136532° -22.888897°
Runways 1
Magnetic Variation 9.346° W

METAR

Not found

TAF

TAF GVBA 152300Z 1600/1706 06015KT 8000 SCT015 PROB40 TEMPO 1611/1615 07018G28KT

Decode

Departure Runways

ID Width Length Bearing (true) Bearing (mag) Surface Threshold Offset Overrun Length
03 98 ft / 30 m 4,025 ft / 1,227 m 16.53° 25.88° Asphalt 0 ft / 0 m 0 ft / 0 m
21 98 ft / 30 m 4,025 ft / 1,227 m 196.53° 205.88° Asphalt 0 ft / 0 m 0 ft / 0 m

GVAC

Details ICAO GVAC (SID)
Name Sal Amilcar Cabral Intl
Region Cape Verde
Timezone Atlantic/Cape_Verde (UTC-1.0)
Stats Elevation 177 ft / 54 m (AMSL)
Location 16.738208° -22.950500°
Runways 2
Magnetic Variation 9.240° W

METAR

GVAC 160400Z 07017KT 9000 FEW014 BKN200 22/14 Q1016 NOSIG

Decode

TAF

TAF GVAC 152300Z 1600/1706 07016KT 8000 SCT014 PROB40 TEMPO 1612/1616 09018G28KT

Decode

Destination Runways

ID Width Length Bearing (true) Bearing (mag) Surface Threshold Offset Overrun Length
01 148 ft / 45 m 10,826 ft / 3,300 m 359.69° 8.93° Asphalt 885 ft / 270 m 0 ft / 0 m
07 148 ft / 45 m 4,892 ft / 1,491 m 57.69° 66.93° Asphalt 200 ft / 61 m 0 ft / 0 m
19 148 ft / 45 m 10,826 ft / 3,300 m 179.69° 188.93° Asphalt 800 ft / 244 m 0 ft / 0 m
25 148 ft / 45 m 4,892 ft / 1,491 m 237.69° 246.93° Asphalt 200 ft / 61 m 0 ft / 0 m

Approach Navaids

Runway Type Ident Frequency Range Bearing (true) Bearing (mag) Slope Elevation
01 Localiser SL 109.90 MHz 18 nm / 33 km 359.58° 8.82° - 177 ft / 54 m (AMSL)
01 Glidescope SL 109.90 MHz 10 nm / 19 km 359.69° 8.93° 3.00° 177 ft / 54 m (AMSL)

Popular Alternatives